sensor_id;sensor_type;location;lat;lon;timestamp;temperature;humidity
16160;DHT22;8185;57.818;15.224;2022-10-16T00:01:40;11.80;99.90
16160;DHT22;8185;57.818;15.224;2022-10-16T00:04:08;11.70;99.90
16160;DHT22;8185;57.818;15.224;2022-10-16T00:06:35;11.60;99.90
16160;DHT22;8185;57.818;15.224;2022-10-16T00:09:04;11.40;99.90
16160;DHT22;8185;57.818;15.224;2022-10-16T00:11:34;11.40;99.90
16160;DHT22;8185;57.818;15.224;2022-10-16T00:14:04;11.40;99.90
16160;DHT22;8185;57.818;15.224;2022-10-16T00:16:32;11.40;99.90
16160;DHT22;8185;57.818;15.224;2022-10-16T00:18:59;11.50;99.90
16160;DHT22;8185;57.818;15.224;2022-10-16T00:21:28;11.40;99.90
16160;DHT22;8185;57.818;15.224;2022-10-16T00:23:57;11.40;99.90
16160;DHT22;8185;57.818;15.224;2022-10-16T00:26:26;11.40;99.90
16160;DHT22;8185;57.818;15.224;2022-10-16T00:28:55;11.40;99.90
16160;DHT22;8185;57.818;15.224;2022-10-16T00:31:23;11.40;99.90
16160;DHT22;8185;57.818;15.224;2022-10-16T00:33:51;11.40;99.90
16160;DHT22;8185;57.818;15.224;2022-10-16T00:36:20;11.40;99.90
16160;DHT22;8185;57.818;15.224;2022-10-16T00:38:50;11.40;99.90
16160;DHT22;8185;57.818;15.224;2022-10-16T00:41:21;11.40;99.90
16160;DHT22;8185;57.818;15.224;2022-10-16T00:43:50;11.50;99.90
16160;DHT22;8185;57.818;15.224;2022-10-16T00:46:21;11.50;99.90
16160;DHT22;8185;57.818;15.224;2022-10-16T00:48:52;11.50;99.90
16160;DHT22;8185;57.818;15.224;2022-10-16T00:51:23;11.60;99.90
16160;DHT22;8185;57.818;15.224;2022-10-16T00:53:52;11.60;99.90
16160;DHT22;8185;57.818;15.224;2022-10-16T00:56:20;11.60;99.90
16160;DHT22;8185;57.818;15.224;2022-10-16T00:58:47;11.70;99.90
16160;DHT22;8185;57.818;15.224;2022-10-16T01:01:15;11.70;99.90
16160;DHT22;8185;57.818;15.224;2022-10-16T01:03:44;11.60;99.90
16160;DHT22;8185;57.818;15.224;2022-10-16T01:06:23;11.70;99.90
16160;DHT22;8185;57.818;15.224;2022-10-16T01:09:06;11.70;99.90
16160;DHT22;8185;57.818;15.224;2022-10-16T01:11:41;11.70;99.90
16160;DHT22;8185;57.818;15.224;2022-10-16T01:14:17;11.70;99.90
16160;DHT22;8185;57.818;15.224;2022-10-16T01:16:51;11.70;99.90
16160;DHT22;8185;57.818;15.224;2022-10-16T01:19:31;11.70;99.90
16160;DHT22;8185;57.818;15.224;2022-10-16T01:22:04;11.70;99.90
16160;DHT22;8185;57.818;15.224;2022-10-16T01:24:39;11.70;99.90
16160;DHT22;8185;57.818;15.224;2022-10-16T01:27:10;11.70;99.90
16160;DHT22;8185;57.818;15.224;2022-10-16T01:29:44;11.70;99.90
16160;DHT22;8185;57.818;15.224;2022-10-16T01:32:24;11.60;99.90
16160;DHT22;8185;57.818;15.224;2022-10-16T01:34:55;11.60;99.90
16160;DHT22;8185;57.818;15.224;2022-10-16T01:37:32;11.60;99.90
16160;DHT22;8185;57.818;15.224;2022-10-16T01:40:04;11.60;99.90
16160;DHT22;8185;57.818;15.224;2022-10-16T01:42:37;11.50;99.90
16160;DHT22;8185;57.818;15.224;2022-10-16T01:45:07;11.50;99.90
16160;DHT22;8185;57.818;15.224;2022-10-16T01:47:37;11.40;99.90
16160;DHT22;8185;57.818;15.224;2022-10-16T01:50:08;11.40;99.90
16160;DHT22;8185;57.818;15.224;2022-10-16T01:52:39;11.30;99.90
16160;DHT22;8185;57.818;15.224;2022-10-16T01:55:09;11.30;99.90
16160;DHT22;8185;57.818;15.224;2022-10-16T01:57:41;11.30;99.90
16160;DHT22;8185;57.818;15.224;2022-10-16T02:00:12;11.20;99.90
16160;DHT22;8185;57.818;15.224;2022-10-16T02:02:40;11.20;99.90
16160;DHT22;8185;57.818;15.224;2022-10-16T02:05:14;11.20;99.90
16160;DHT22;8185;57.818;15.224;2022-10-16T02:07:43;11.30;99.90
16160;DHT22;8185;57.818;15.224;2022-10-16T02:10:11;11.20;99.90
16160;DHT22;8185;57.818;15.224;2022-10-16T02:12:42;11.20;99.90
16160;DHT22;8185;57.818;15.224;2022-10-16T02:15:12;11.20;99.90
16160;DHT22;8185;57.818;15.224;2022-10-16T02:17:39;11.20;99.90
16160;DHT22;8185;57.818;15.224;2022-10-16T02:20:08;11.20;99.90
16160;DHT22;8185;57.818;15.224;2022-10-16T02:22:39;11.20;99.90
16160;DHT22;8185;57.818;15.224;2022-10-16T02:25:10;11.20;99.90
16160;DHT22;8185;57.818;15.224;2022-10-16T02:27:43;11.20;99.90
16160;DHT22;8185;57.818;15.224;2022-10-16T02:30:18;11.10;99.90
16160;DHT22;8185;57.818;15.224;2022-10-16T02:32:48;11.10;99.90
16160;DHT22;8185;57.818;15.224;2022-10-16T02:35:17;11.10;99.90
16160;DHT22;8185;57.818;15.224;2022-10-16T02:37:46;11.10;99.90
16160;DHT22;8185;57.818;15.224;2022-10-16T02:40:15;11.00;99.90
16160;DHT22;8185;57.818;15.224;2022-10-16T02:42:49;11.10;99.90
16160;DHT22;8185;57.818;15.224;2022-10-16T02:45:17;11.10;99.90
16160;DHT22;8185;57.818;15.224;2022-10-16T02:47:45;11.10;99.90
16160;DHT22;8185;57.818;15.224;2022-10-16T02:50:12;11.10;99.90
16160;DHT22;8185;57.818;15.224;2022-10-16T02:52:40;11.20;99.90
16160;DHT22;8185;57.818;15.224;2022-10-16T02:55:08;11.20;99.90
16160;DHT22;8185;57.818;15.224;2022-10-16T02:57:35;11.20;99.90
16160;DHT22;8185;57.818;15.224;2022-10-16T03:00:09;11.30;99.90
16160;DHT22;8185;57.818;15.224;2022-10-16T03:02:37;11.30;99.90
16160;DHT22;8185;57.818;15.224;2022-10-16T03:05:05;11.40;99.90
16160;DHT22;8185;57.818;15.224;2022-10-16T03:07:33;11.40;99.90
16160;DHT22;8185;57.818;15.224;2022-10-16T03:10:00;11.40;99.90
16160;DHT22;8185;57.818;15.224;2022-10-16T03:12:28;11.40;99.90
16160;DHT22;8185;57.818;15.224;2022-10-16T03:14:56;11.40;99.90
16160;DHT22;8185;57.818;15.224;2022-10-16T03:17:25;11.40;99.90
16160;DHT22;8185;57.818;15.224;2022-10-16T03:19:52;11.40;99.90
16160;DHT22;8185;57.818;15.224;2022-10-16T03:22:19;11.40;99.90
16160;DHT22;8185;57.818;15.224;2022-10-16T03:24:47;11.40;99.90
16160;DHT22;8185;57.818;15.224;2022-10-16T03:27:14;11.40;99.90
16160;DHT22;8185;57.818;15.224;2022-10-16T03:29:42;11.40;99.90
16160;DHT22;8185;57.818;15.224;2022-10-16T03:32:09;11.40;99.90
16160;DHT22;8185;57.818;15.224;2022-10-16T03:34:38;11.50;99.90
16160;DHT22;8185;57.818;15.224;2022-10-16T03:37:05;11.50;99.90
16160;DHT22;8185;57.818;15.224;2022-10-16T03:39:32;11.50;99.90
16160;DHT22;8185;57.818;15.224;2022-10-16T03:42:00;11.50;99.90
16160;DHT22;8185;57.818;15.224;2022-10-16T03:44:27;11.50;99.90
16160;DHT22;8185;57.818;15.224;2022-10-16T03:46:54;11.50;99.90
16160;DHT22;8185;57.818;15.224;2022-10-16T03:49:21;11.50;99.90
16160;DHT22;8185;57.818;15.224;2022-10-16T03:51:50;11.40;99.90
16160;DHT22;8185;57.818;15.224;2022-10-16T03:54:17;11.40;99.90
16160;DHT22;8185;57.818;15.224;2022-10-16T03:56:45;11.40;99.90
16160;DHT22;8185;57.818;15.224;2022-10-16T03:59:12;11.30;99.90
16160;DHT22;8185;57.818;15.224;2022-10-16T04:01:40;11.30;99.90
16160;DHT22;8185;57.818;15.224;2022-10-16T04:04:07;11.20;99.90
16160;DHT22;8185;57.818;15.224;2022-10-16T04:06:34;11.10;99.90
16160;DHT22;8185;57.818;15.224;2022-10-16T04:09:03;11.10;99.90
16160;DHT22;8185;57.818;15.224;2022-10-16T04:11:31;11.10;99.90
16160;DHT22;8185;57.818;15.224;2022-10-16T04:13:58;11.10;99.90
16160;DHT22;8185;57.818;15.224;2022-10-16T04:16:26;11.10;99.90
16160;DHT22;8185;57.818;15.224;2022-10-16T04:18:53;11.10;99.90
16160;DHT22;8185;57.818;15.224;2022-10-16T04:21:20;11.00;99.90
16160;DHT22;8185;57.818;15.224;2022-10-16T04:23:48;11.00;99.90
16160;DHT22;8185;57.818;15.224;2022-10-16T04:26:16;11.10;99.90
16160;DHT22;8185;57.818;15.224;2022-10-16T04:28:44;11.10;99.90
16160;DHT22;8185;57.818;15.224;2022-10-16T04:31:11;11.00;99.90
16160;DHT22;8185;57.818;15.224;2022-10-16T04:33:38;10.90;99.90
16160;DHT22;8185;57.818;15.224;2022-10-16T04:36:09;10.90;99.90
16160;DHT22;8185;57.818;15.224;2022-10-16T04:38:36;10.90;99.90
16160;DHT22;8185;57.818;15.224;2022-10-16T04:41:05;10.90;99.90
16160;DHT22;8185;57.818;15.224;2022-10-16T04:43:34;10.90;99.90
16160;DHT22;8185;57.818;15.224;2022-10-16T04:46:02;10.80;99.90
16160;DHT22;8185;57.818;15.224;2022-10-16T04:48:30;10.70;99.90
16160;DHT22;8185;57.818;15.224;2022-10-16T04:50:58;10.70;99.90
16160;DHT22;8185;57.818;15.224;2022-10-16T04:53:25;10.70;99.90
16160;DHT22;8185;57.818;15.224;2022-10-16T04:55:52;10.60;99.90
16160;DHT22;8185;57.818;15.224;2022-10-16T04:58:20;10.60;99.90
16160;DHT22;8185;57.818;15.224;2022-10-16T05:00:48;10.60;99.90
16160;DHT22;8185;57.818;15.224;2022-10-16T05:03:16;10.60;99.90
16160;DHT22;8185;57.818;15.224;2022-10-16T05:05:43;10.50;99.90
16160;DHT22;8185;57.818;15.224;2022-10-16T05:08:11;10.40;99.90
16160;DHT22;8185;57.818;15.224;2022-10-16T05:10:39;10.40;99.90
16160;DHT22;8185;57.818;15.224;2022-10-16T05:13:06;10.40;99.90
16160;DHT22;8185;57.818;15.224;2022-10-16T05:15:33;10.40;99.90
16160;DHT22;8185;57.818;15.224;2022-10-16T05:18:02;10.30;99.90
16160;DHT22;8185;57.818;15.224;2022-10-16T05:20:30;10.30;99.90
16160;DHT22;8185;57.818;15.224;2022-10-16T05:22:57;10.30;99.90
16160;DHT22;8185;57.818;15.224;2022-10-16T05:25:25;10.30;99.90
16160;DHT22;8185;57.818;15.224;2022-10-16T05:27:52;10.20;99.90
16160;DHT22;8185;57.818;15.224;2022-10-16T05:30:20;10.30;99.90
16160;DHT22;8185;57.818;15.224;2022-10-16T05:32:48;10.30;99.90
16160;DHT22;8185;57.818;15.224;2022-10-16T05:35:18;10.20;99.90
16160;DHT22;8185;57.818;15.224;2022-10-16T05:37:46;10.20;99.90
16160;DHT22;8185;57.818;15.224;2022-10-16T05:40:14;10.20;99.90
16160;DHT22;8185;57.818;15.224;2022-10-16T05:42:42;10.20;99.90
16160;DHT22;8185;57.818;15.224;2022-10-16T05:45:11;10.30;99.90
16160;DHT22;8185;57.818;15.224;2022-10-16T05:47:38;10.20;99.90
16160;DHT22;8185;57.818;15.224;2022-10-16T05:50:06;10.20;99.90
16160;DHT22;8185;57.818;15.224;2022-10-16T05:52:35;10.20;99.90
16160;DHT22;8185;57.818;15.224;2022-10-16T05:55:03;10.20;99.90
16160;DHT22;8185;57.818;15.224;2022-10-16T05:57:30;10.10;99.90
16160;DHT22;8185;57.818;15.224;2022-10-16T05:59:58;10.10;99.90
16160;DHT22;8185;57.818;15.224;2022-10-16T06:02:25;10.20;99.90
16160;DHT22;8185;57.818;15.224;2022-10-16T06:04:52;10.20;99.90
16160;DHT22;8185;57.818;15.224;2022-10-16T06:07:21;10.20;99.90
16160;DHT22;8185;57.818;15.224;2022-10-16T06:09:50;10.20;99.90
16160;DHT22;8185;57.818;15.224;2022-10-16T06:12:17;10.20;99.90
16160;DHT22;8185;57.818;15.224;2022-10-16T06:14:45;10.20;99.90
16160;DHT22;8185;57.818;15.224;2022-10-16T06:17:13;10.20;99.90
16160;DHT22;8185;57.818;15.224;2022-10-16T06:19:40;10.20;99.90
16160;DHT22;8185;57.818;15.224;2022-10-16T06:22:08;10.30;99.90
16160;DHT22;8185;57.818;15.224;2022-10-16T06:24:35;10.30;99.90
16160;DHT22;8185;57.818;15.224;2022-10-16T06:27:05;10.30;99.90
16160;DHT22;8185;57.818;15.224;2022-10-16T06:29:32;10.40;99.90
16160;DHT22;8185;57.818;15.224;2022-10-16T06:31:59;10.50;99.90
16160;DHT22;8185;57.818;15.224;2022-10-16T06:34:27;10.60;99.90
16160;DHT22;8185;57.818;15.224;2022-10-16T06:36:54;10.60;99.90
16160;DHT22;8185;57.818;15.224;2022-10-16T06:39:21;10.70;99.90
16160;DHT22;8185;57.818;15.224;2022-10-16T06:41:49;10.60;99.90
16160;DHT22;8185;57.818;15.224;2022-10-16T06:44:18;10.60;99.90
16160;DHT22;8185;57.818;15.224;2022-10-16T06:46:45;10.70;99.90
16160;DHT22;8185;57.818;15.224;2022-10-16T06:49:12;10.70;99.90
16160;DHT22;8185;57.818;15.224;2022-10-16T06:51:46;10.80;99.90
16160;DHT22;8185;57.818;15.224;2022-10-16T06:54:15;10.80;99.90
16160;DHT22;8185;57.818;15.224;2022-10-16T06:56:43;10.90;99.90
16160;DHT22;8185;57.818;15.224;2022-10-16T06:59:11;10.90;99.90
16160;DHT22;8185;57.818;15.224;2022-10-16T07:01:40;10.90;99.90
16160;DHT22;8185;57.818;15.224;2022-10-16T07:04:07;11.00;99.90
16160;DHT22;8185;57.818;15.224;2022-10-16T07:06:35;11.10;99.90
16160;DHT22;8185;57.818;15.224;2022-10-16T07:09:05;11.20;99.90
16160;DHT22;8185;57.818;15.224;2022-10-16T07:11:33;11.20;99.90
16160;DHT22;8185;57.818;15.224;2022-10-16T07:14:00;11.30;99.90
16160;DHT22;8185;57.818;15.224;2022-10-16T07:16:29;11.30;99.90
16160;DHT22;8185;57.818;15.224;2022-10-16T07:18:59;11.30;99.90
16160;DHT22;8185;57.818;15.224;2022-10-16T07:21:28;11.30;99.90
16160;DHT22;8185;57.818;15.224;2022-10-16T07:23:58;11.20;99.90
16160;DHT22;8185;57.818;15.224;2022-10-16T07:26:28;11.20;99.90
16160;DHT22;8185;57.818;15.224;2022-10-16T07:28:56;11.20;99.90
16160;DHT22;8185;57.818;15.224;2022-10-16T07:31:24;11.30;99.90
16160;DHT22;8185;57.818;15.224;2022-10-16T07:33:51;11.20;99.90
16160;DHT22;8185;57.818;15.224;2022-10-16T07:36:21;11.20;99.90
16160;DHT22;8185;57.818;15.224;2022-10-16T07:38:48;11.20;99.90
16160;DHT22;8185;57.818;15.224;2022-10-16T07:41:17;11.30;99.90
16160;DHT22;8185;57.818;15.224;2022-10-16T07:43:46;11.20;99.90
16160;DHT22;8185;57.818;15.224;2022-10-16T07:46:14;11.20;99.90
16160;DHT22;8185;57.818;15.224;2022-10-16T07:48:42;11.20;99.90
16160;DHT22;8185;57.818;15.224;2022-10-16T07:51:14;11.30;99.90
16160;DHT22;8185;57.818;15.224;2022-10-16T07:53:43;11.40;99.90
16160;DHT22;8185;57.818;15.224;2022-10-16T07:56:11;11.40;99.90
16160;DHT22;8185;57.818;15.224;2022-10-16T07:58:39;11.40;99.90
16160;DHT22;8185;57.818;15.224;2022-10-16T08:01:07;11.40;99.90
16160;DHT22;8185;57.818;15.224;2022-10-16T08:03:35;11.40;99.90
16160;DHT22;8185;57.818;15.224;2022-10-16T08:06:03;11.40;99.90
16160;DHT22;8185;57.818;15.224;2022-10-16T08:08:31;11.40;99.90
16160;DHT22;8185;57.818;15.224;2022-10-16T08:11:00;11.40;99.90
16160;DHT22;8185;57.818;15.224;2022-10-16T08:13:29;11.40;99.90
16160;DHT22;8185;57.818;15.224;2022-10-16T08:15:57;11.50;99.90
16160;DHT22;8185;57.818;15.224;2022-10-16T08:18:25;11.50;99.90
16160;DHT22;8185;57.818;15.224;2022-10-16T08:20:56;11.50;99.90
16160;DHT22;8185;57.818;15.224;2022-10-16T08:23:24;11.50;99.90
16160;DHT22;8185;57.818;15.224;2022-10-16T08:25:52;11.50;99.90
16160;DHT22;8185;57.818;15.224;2022-10-16T08:28:22;11.40;99.90
16160;DHT22;8185;57.818;15.224;2022-10-16T08:30:49;11.40;99.90
16160;DHT22;8185;57.818;15.224;2022-10-16T08:33:17;11.40;99.90
16160;DHT22;8185;57.818;15.224;2022-10-16T08:35:50;11.40;99.90
16160;DHT22;8185;57.818;15.224;2022-10-16T08:38:19;11.40;99.90
16160;DHT22;8185;57.818;15.224;2022-10-16T08:40:47;11.50;99.90
16160;DHT22;8185;57.818;15.224;2022-10-16T08:43:33;11.50;99.90
16160;DHT22;8185;57.818;15.224;2022-10-16T08:46:22;11.70;99.90
16160;DHT22;8185;57.818;15.224;2022-10-16T08:48:54;11.80;99.90
16160;DHT22;8185;57.818;15.224;2022-10-16T08:51:24;12.10;99.90
16160;DHT22;8185;57.818;15.224;2022-10-16T08:53:56;12.20;99.90
16160;DHT22;8185;57.818;15.224;2022-10-16T08:56:25;12.50;99.90
16160;DHT22;8185;57.818;15.224;2022-10-16T08:58:54;12.60;99.90
16160;DHT22;8185;57.818;15.224;2022-10-16T09:01:23;12.80;99.90
16160;DHT22;8185;57.818;15.224;2022-10-16T09:07:14;12.90;99.90
16160;DHT22;8185;57.818;15.224;2022-10-16T09:09:58;13.00;99.90
16160;DHT22;8185;57.818;15.224;2022-10-16T09:12:31;12.90;99.90
16160;DHT22;8185;57.818;15.224;2022-10-16T09:15:13;12.80;99.90
16160;DHT22;8185;57.818;15.224;2022-10-16T09:17:49;12.70;99.90
16160;DHT22;8185;57.818;15.224;2022-10-16T09:20:28;12.60;99.90
16160;DHT22;8185;57.818;15.224;2022-10-16T09:23:10;12.60;99.90
16160;DHT22;8185;57.818;15.224;2022-10-16T09:25:42;12.50;99.90
16160;DHT22;8185;57.818;15.224;2022-10-16T09:28:10;12.40;99.90
16160;DHT22;8185;57.818;15.224;2022-10-16T09:30:39;12.70;99.90
16160;DHT22;8185;57.818;15.224;2022-10-16T09:33:08;12.80;99.90
16160;DHT22;8185;57.818;15.224;2022-10-16T09:35:38;12.90;99.90
16160;DHT22;8185;57.818;15.224;2022-10-16T09:38:07;13.10;99.90
16160;DHT22;8185;57.818;15.224;2022-10-16T09:40:36;13.30;99.90
16160;DHT22;8185;57.818;15.224;2022-10-16T09:43:18;13.70;99.90
16160;DHT22;8185;57.818;15.224;2022-10-16T09:45:56;13.70;99.90
16160;DHT22;8185;57.818;15.224;2022-10-16T09:48:26;13.70;99.90
16160;DHT22;8185;57.818;15.224;2022-10-16T09:50:58;13.70;99.90
16160;DHT22;8185;57.818;15.224;2022-10-16T09:53:37;13.70;99.90
16160;DHT22;8185;57.818;15.224;2022-10-16T09:56:05;13.70;99.90
16160;DHT22;8185;57.818;15.224;2022-10-16T09:58:33;13.30;99.90
16160;DHT22;8185;57.818;15.224;2022-10-16T10:01:02;13.30;99.90
16160;DHT22;8185;57.818;15.224;2022-10-16T10:03:38;13.10;99.90
16160;DHT22;8185;57.818;15.224;2022-10-16T10:06:18;13.00;99.90
16160;DHT22;8185;57.818;15.224;2022-10-16T10:08:57;13.10;99.90
16160;DHT22;8185;57.818;15.224;2022-10-16T10:11:54;13.20;99.90
16160;DHT22;8185;57.818;15.224;2022-10-16T10:17:17;13.20;99.90
16160;DHT22;8185;57.818;15.224;2022-10-16T10:19:48;13.10;99.90
16160;DHT22;8185;57.818;15.224;2022-10-16T10:22:23;13.10;99.90
16160;DHT22;8185;57.818;15.224;2022-10-16T10:25:12;13.10;99.90
16160;DHT22;8185;57.818;15.224;2022-10-16T10:27:48;13.10;99.90
16160;DHT22;8185;57.818;15.224;2022-10-16T10:30:23;13.10;99.90
16160;DHT22;8185;57.818;15.224;2022-10-16T10:33:03;13.10;99.90
16160;DHT22;8185;57.818;15.224;2022-10-16T10:35:41;13.00;99.90
16160;DHT22;8185;57.818;15.224;2022-10-16T10:38:20;13.00;99.90
16160;DHT22;8185;57.818;15.224;2022-10-16T10:40:58;13.40;99.90
16160;DHT22;8185;57.818;15.224;2022-10-16T10:43:41;13.70;99.90
16160;DHT22;8185;57.818;15.224;2022-10-16T10:46:17;14.20;99.90
16160;DHT22;8185;57.818;15.224;2022-10-16T10:49:16;14.10;99.90
16160;DHT22;8185;57.818;15.224;2022-10-16T10:51:56;13.90;99.90
16160;DHT22;8185;57.818;15.224;2022-10-16T10:54:34;13.70;99.90
16160;DHT22;8185;57.818;15.224;2022-10-16T10:57:10;13.60;99.90
16160;DHT22;8185;57.818;15.224;2022-10-16T10:59:56;13.50;99.90
16160;DHT22;8185;57.818;15.224;2022-10-16T11:02:32;13.70;99.90
16160;DHT22;8185;57.818;15.224;2022-10-16T11:05:28;13.70;99.90
16160;DHT22;8185;57.818;15.224;2022-10-16T11:08:02;13.70;99.90
16160;DHT22;8185;57.818;15.224;2022-10-16T11:10:42;13.50;99.90
16160;DHT22;8185;57.818;15.224;2022-10-16T11:13:25;13.60;99.90
16160;DHT22;8185;57.818;15.224;2022-10-16T11:15:57;13.60;99.90
16160;DHT22;8185;57.818;15.224;2022-10-16T11:18:30;13.50;99.90
16160;DHT22;8185;57.818;15.224;2022-10-16T11:21:05;13.40;99.90
16160;DHT22;8185;57.818;15.224;2022-10-16T11:23:39;13.50;99.90
16160;DHT22;8185;57.818;15.224;2022-10-16T11:26:14;13.40;99.90
16160;DHT22;8185;57.818;15.224;2022-10-16T11:28:46;13.20;99.90
16160;DHT22;8185;57.818;15.224;2022-10-16T11:31:19;13.20;99.90
16160;DHT22;8185;57.818;15.224;2022-10-16T11:33:54;13.40;99.90
16160;DHT22;8185;57.818;15.224;2022-10-16T11:36:28;13.70;99.90
16160;DHT22;8185;57.818;15.224;2022-10-16T11:39:01;13.80;99.90
16160;DHT22;8185;57.818;15.224;2022-10-16T11:41:34;13.70;99.90
16160;DHT22;8185;57.818;15.224;2022-10-16T11:44:32;13.80;99.90
16160;DHT22;8185;57.818;15.224;2022-10-16T11:47:08;13.90;99.90
16160;DHT22;8185;57.818;15.224;2022-10-16T11:49:38;14.00;99.90
16160;DHT22;8185;57.818;15.224;2022-10-16T11:52:12;14.00;99.90
16160;DHT22;8185;57.818;15.224;2022-10-16T11:54:47;14.00;99.90
16160;DHT22;8185;57.818;15.224;2022-10-16T11:57:19;13.80;99.90
16160;DHT22;8185;57.818;15.224;2022-10-16T11:59:52;13.90;99.90
16160;DHT22;8185;57.818;15.224;2022-10-16T12:02:31;13.80;99.90
16160;DHT22;8185;57.818;15.224;2022-10-16T12:05:07;13.70;99.90
16160;DHT22;8185;57.818;15.224;2022-10-16T12:07:43;13.70;99.90
16160;DHT22;8185;57.818;15.224;2022-10-16T12:10:21;13.90;99.90
16160;DHT22;8185;57.818;15.224;2022-10-16T12:12:49;13.90;99.90
16160;DHT22;8185;57.818;15.224;2022-10-16T12:15:22;13.90;99.90
16160;DHT22;8185;57.818;15.224;2022-10-16T12:17:50;14.00;99.90
16160;DHT22;8185;57.818;15.224;2022-10-16T12:20:28;14.10;99.90
16160;DHT22;8185;57.818;15.224;2022-10-16T12:23:00;14.20;99.90
16160;DHT22;8185;57.818;15.224;2022-10-16T12:25:30;14.20;99.90
16160;DHT22;8185;57.818;15.224;2022-10-16T12:28:00;14.40;99.90
16160;DHT22;8185;57.818;15.224;2022-10-16T12:30:30;14.20;99.90
16160;DHT22;8185;57.818;15.224;2022-10-16T12:33:01;14.20;99.90
16160;DHT22;8185;57.818;15.224;2022-10-16T12:35:31;14.00;99.90
16160;DHT22;8185;57.818;15.224;2022-10-16T12:38:16;13.80;99.90
16160;DHT22;8185;57.818;15.224;2022-10-16T12:40:45;13.80;99.90
16160;DHT22;8185;57.818;15.224;2022-10-16T12:43:36;13.80;99.90
16160;DHT22;8185;57.818;15.224;2022-10-16T12:46:19;13.80;99.90
16160;DHT22;8185;57.818;15.224;2022-10-16T12:48:48;13.80;99.90
16160;DHT22;8185;57.818;15.224;2022-10-16T12:51:25;13.80;99.90
16160;DHT22;8185;57.818;15.224;2022-10-16T12:54:01;13.80;99.90
16160;DHT22;8185;57.818;15.224;2022-10-16T12:56:38;13.70;99.90
16160;DHT22;8185;57.818;15.224;2022-10-16T12:59:18;13.60;99.90
16160;DHT22;8185;57.818;15.224;2022-10-16T13:02:18;13.50;99.90
16160;DHT22;8185;57.818;15.224;2022-10-16T13:05:05;13.40;99.90
16160;DHT22;8185;57.818;15.224;2022-10-16T13:07:48;13.50;99.90
16160;DHT22;8185;57.818;15.224;2022-10-16T13:10:24;13.20;99.90
16160;DHT22;8185;57.818;15.224;2022-10-16T13:13:20;13.10;99.90
16160;DHT22;8185;57.818;15.224;2022-10-16T13:16:02;13.10;99.90
16160;DHT22;8185;57.818;15.224;2022-10-16T13:18:39;13.20;99.90
16160;DHT22;8185;57.818;15.224;2022-10-16T13:21:17;13.10;99.90
16160;DHT22;8185;57.818;15.224;2022-10-16T13:23:52;12.90;99.90
16160;DHT22;8185;57.818;15.224;2022-10-16T13:26:31;12.80;99.90
16160;DHT22;8185;57.818;15.224;2022-10-16T13:29:05;12.90;99.90
16160;DHT22;8185;57.818;15.224;2022-10-16T13:31:32;12.90;99.90
16160;DHT22;8185;57.818;15.224;2022-10-16T13:34:00;13.00;99.90
16160;DHT22;8185;57.818;15.224;2022-10-16T13:36:29;13.00;99.90
16160;DHT22;8185;57.818;15.224;2022-10-16T13:39:15;13.00;99.90
16160;DHT22;8185;57.818;15.224;2022-10-16T13:42:00;12.50;99.90
16160;DHT22;8185;57.818;15.224;2022-10-16T13:44:39;11.90;99.90
16160;DHT22;8185;57.818;15.224;2022-10-16T13:47:15;11.70;99.90
16160;DHT22;8185;57.818;15.224;2022-10-16T13:49:43;11.50;99.90
16160;DHT22;8185;57.818;15.224;2022-10-16T13:52:17;11.40;99.90
16160;DHT22;8185;57.818;15.224;2022-10-16T13:54:45;11.30;99.90
16160;DHT22;8185;57.818;15.224;2022-10-16T13:57:15;11.30;99.90
16160;DHT22;8185;57.818;15.224;2022-10-16T13:59:43;11.30;99.90
16160;DHT22;8185;57.818;15.224;2022-10-16T14:02:19;11.20;99.90
16160;DHT22;8185;57.818;15.224;2022-10-16T14:04:47;11.20;99.90
16160;DHT22;8185;57.818;15.224;2022-10-16T14:07:23;11.20;99.90
16160;DHT22;8185;57.818;15.224;2022-10-16T14:09:52;11.20;99.90
16160;DHT22;8185;57.818;15.224;2022-10-16T14:12:22;11.20;99.90
16160;DHT22;8185;57.818;15.224;2022-10-16T14:14:51;11.30;99.90
16160;DHT22;8185;57.818;15.224;2022-10-16T14:17:24;11.30;99.90
16160;DHT22;8185;57.818;15.224;2022-10-16T14:19:54;10.90;99.90
16160;DHT22;8185;57.818;15.224;2022-10-16T14:22:28;10.30;99.90
16160;DHT22;8185;57.818;15.224;2022-10-16T14:24:57;10.10;99.90
16160;DHT22;8185;57.818;15.224;2022-10-16T14:27:32;9.90;99.90
16160;DHT22;8185;57.818;15.224;2022-10-16T14:30:14;9.70;99.90
16160;DHT22;8185;57.818;15.224;2022-10-16T14:32:52;9.50;99.90
16160;DHT22;8185;57.818;15.224;2022-10-16T14:35:26;9.20;99.90
16160;DHT22;8185;57.818;15.224;2022-10-16T14:37:54;9.20;99.90
16160;DHT22;8185;57.818;15.224;2022-10-16T14:40:24;10.60;99.90
16160;DHT22;8185;57.818;15.224;2022-10-16T14:42:54;11.60;99.90
16160;DHT22;8185;57.818;15.224;2022-10-16T14:45:24;12.40;99.90
16160;DHT22;8185;57.818;15.224;2022-10-16T14:47:54;12.90;99.90
16160;DHT22;8185;57.818;15.224;2022-10-16T14:50:23;12.80;99.90
16160;DHT22;8185;57.818;15.224;2022-10-16T14:52:50;13.60;99.90
16160;DHT22;8185;57.818;15.224;2022-10-16T14:55:18;13.80;99.90
16160;DHT22;8185;57.818;15.224;2022-10-16T14:57:46;14.40;99.90
16160;DHT22;8185;57.818;15.224;2022-10-16T15:00:20;14.50;99.90
16160;DHT22;8185;57.818;15.224;2022-10-16T15:02:49;14.80;99.90
16160;DHT22;8185;57.818;15.224;2022-10-16T15:05:19;14.80;99.90
16160;DHT22;8185;57.818;15.224;2022-10-16T15:07:47;14.60;99.90
16160;DHT22;8185;57.818;15.224;2022-10-16T15:10:15;14.20;99.90
16160;DHT22;8185;57.818;15.224;2022-10-16T15:12:44;14.10;99.90
16160;DHT22;8185;57.818;15.224;2022-10-16T15:15:37;13.60;99.90
16160;DHT22;8185;57.818;15.224;2022-10-16T15:18:05;13.30;99.90
16160;DHT22;8185;57.818;15.224;2022-10-16T15:20:34;12.90;99.90
16160;DHT22;8185;57.818;15.224;2022-10-16T15:23:02;11.90;99.90
16160;DHT22;8185;57.818;15.224;2022-10-16T15:25:36;11.30;99.90
16160;DHT22;8185;57.818;15.224;2022-10-16T15:28:05;10.90;99.90
16160;DHT22;8185;57.818;15.224;2022-10-16T15:30:33;10.50;99.90
16160;DHT22;8185;57.818;15.224;2022-10-16T15:33:03;10.20;99.90
16160;DHT22;8185;57.818;15.224;2022-10-16T15:35:30;10.00;99.90
16160;DHT22;8185;57.818;15.224;2022-10-16T15:37:58;9.90;99.90
16160;DHT22;8185;57.818;15.224;2022-10-16T15:40:25;9.60;99.90
16160;DHT22;8185;57.818;15.224;2022-10-16T15:42:53;9.50;99.90
16160;DHT22;8185;57.818;15.224;2022-10-16T15:45:20;9.30;99.90
16160;DHT22;8185;57.818;15.224;2022-10-16T15:47:48;9.30;99.90
16160;DHT22;8185;57.818;15.224;2022-10-16T15:50:16;9.20;99.90
16160;DHT22;8185;57.818;15.224;2022-10-16T15:52:44;9.10;99.90
16160;DHT22;8185;57.818;15.224;2022-10-16T15:55:13;9.10;99.90
16160;DHT22;8185;57.818;15.224;2022-10-16T15:57:40;9.10;99.90
16160;DHT22;8185;57.818;15.224;2022-10-16T16:00:11;9.00;99.90
16160;DHT22;8185;57.818;15.224;2022-10-16T16:02:39;9.10;99.90
16160;DHT22;8185;57.818;15.224;2022-10-16T16:05:08;9.00;99.90